Time;durP1;ratioP1;P1;durP2;ratioP2;P2;SDS_P1;SDS_P2;PMS_P1;PMS_P2;Temp;Humidity;BMP_temperature;BMP_pressure;BME280_temperature;BME280_humidity;BME280_pressure;Samples;Min_cycle;Max_cycle;Signal;HPM_P1;HPM_P2
2022/05/05 00:01:43;;;;;;;;;10.75;10.00;;;;;12.58;57.48;101987.41;5059688;28;10616;-65
2022/05/05 00:04:10;;;;;;;;;12.50;11.50;;;;;12.56;57.20;101994.03;5067073;28;10359;-65
2022/05/05 00:06:37;;;;;;;;;7.50;6.50;;;;;12.52;57.33;101984.63;5052142;28;10438;-65
2022/05/05 00:09:04;;;;;;;;;8.25;8.25;;;;;12.51;57.24;101994.53;5061395;28;10964;-66
2022/05/05 00:14:25;;;;;;;;;7.25;7.00;;;;;12.44;57.57;101995.47;5065062;28;10225;-64
2022/05/05 00:16:54;;;;;;;;;11.00;8.00;;;;;12.41;57.48;101995.81;5060815;28;10441;-65
2022/05/05 00:19:21;;;;;;;;;11.75;9.75;;;;;12.37;57.85;101992.63;5063594;28;11092;-66
2022/05/05 00:21:47;;;;;;;;;9.00;9.00;;;;;12.35;58.38;101997.34;5063559;28;10388;-65
2022/05/05 00:24:16;;;;;;;;;10.25;8.75;;;;;12.31;57.94;101994.16;5052107;28;10619;-66
2022/05/05 00:26:43;;;;;;;;;8.75;7.50;;;;;12.32;58.41;101989.63;5050849;28;10546;-65
2022/05/05 00:29:09;;;;;;;;;11.50;10.25;;;;;12.31;58.45;101987.91;5051937;28;10376;-65
2022/05/05 00:31:36;;;;;;;;;11.00;8.00;;;;;12.29;58.61;101985.41;5052069;28;10233;-66
2022/05/05 00:34:03;;;;;;;;;13.00;11.25;;;;;12.27;58.66;101992.00;5051995;28;10485;-66
2022/05/05 00:36:29;;;;;;;;;9.25;9.25;;;;;12.21;59.13;101982.75;5051949;28;10451;-64
2022/05/05 00:38:55;;;;;;;;;12.25;9.50;;;;;12.19;59.46;101986.63;5060139;28;10343;-64
2022/05/05 00:41:22;;;;;;;;;8.75;8.75;;;;;12.16;59.62;101982.47;5072056;28;10327;-65
2022/05/05 00:43:49;;;;;;;;;12.75;10.25;;;;;12.14;59.64;101981.78;5055541;28;10291;-65
2022/05/05 00:46:15;;;;;;;;;8.25;8.25;;;;;12.12;59.15;101983.81;5051734;28;10459;-65
2022/05/05 00:48:42;;;;;;;;;8.75;7.75;;;;;12.11;59.86;101985.69;5053416;28;10373;-65
2022/05/05 00:51:10;;;;;;;;;10.75;8.75;;;;;12.11;59.58;101979.41;5067556;28;10359;-66
2022/05/05 00:53:36;;;;;;;;;11.25;9.50;;;;;12.10;59.76;101975.88;5061455;28;10388;-65
2022/05/05 00:56:07;;;;;;;;;12.75;9.25;;;;;12.10;59.09;101985.84;5055110;28;10471;-65
2022/05/05 00:58:34;;;;;;;;;13.50;12.50;;;;;12.09;59.10;101989.56;5058439;28;10363;-65
2022/05/05 01:01:06;;;;;;;;;13.50;11.25;;;;;12.08;59.35;101996.00;5071369;28;10463;-66
2022/05/05 01:03:34;;;;;;;;;13.50;11.00;;;;;12.07;59.03;101989.75;5064564;28;10472;-65
2022/05/05 01:06:06;;;;;;;;;10.25;9.50;;;;;12.07;59.50;101989.75;5067311;28;11332;-66
2022/05/05 01:08:33;;;;;;;;;15.25;12.25;;;;;12.05;59.09;101990.94;5065686;28;10511;-65
2022/05/05 01:11:00;;;;;;;;;11.25;9.00;;;;;12.01;59.45;101990.44;5070749;28;11442;-65
2022/05/05 01:13:27;;;;;;;;;11.50;11.25;;;;;12.00;59.57;101990.63;5066662;28;10383;-66
2022/05/05 01:15:55;;;;;;;;;12.75;11.25;;;;;11.98;59.44;101988.09;5069349;28;10553;-66
2022/05/05 01:18:22;;;;;;;;;12.00;9.00;;;;;11.97;59.93;101989.13;5051067;28;11418;-66
2022/05/05 01:20:50;;;;;;;;;10.25;10.00;;;;;11.96;60.02;101990.13;5069131;28;10298;-66
2022/05/05 01:23:17;;;;;;;;;9.25;9.25;;;;;11.94;59.38;101989.44;5065406;28;10438;-66
2022/05/05 01:28:31;;;;;;;;;11.00;10.25;;;;;11.87;59.55;101992.03;5066925;28;10363;-66
2022/05/05 01:30:58;;;;;;;;;10.25;10.00;;;;;11.86;59.64;102003.81;5068864;28;10509;-67
2022/05/05 01:33:28;;;;;;;;;15.25;12.75;;;;;11.83;59.96;101990.69;5061709;28;10358;-67
2022/05/05 01:35:55;;;;;;;;;16.75;11.75;;;;;11.83;59.85;102000.66;5066562;28;10484;-66
2022/05/05 01:38:24;;;;;;;;;11.50;11.25;;;;;11.82;59.66;101996.22;5064369;28;10461;-66
2022/05/05 01:40:50;;;;;;;;;8.25;8.25;;;;;11.81;59.80;101998.06;5066373;28;10405;-67
2022/05/05 01:43:19;;;;;;;;;12.50;10.50;;;;;11.80;59.96;101996.41;5063301;28;10428;-66
2022/05/05 01:45:46;;;;;;;;;11.25;9.50;;;;;11.79;60.28;101989.34;5066833;28;10626;-65
2022/05/05 01:48:13;;;;;;;;;13.00;12.00;;;;;11.78;60.29;101984.09;5064598;28;10476;-66
2022/05/05 01:50:40;;;;;;;;;13.75;10.75;;;;;11.75;60.38;101985.31;5066955;28;10639;-66
2022/05/05 01:53:07;;;;;;;;;14.00;12.00;;;;;11.72;60.49;101990.19;5060934;28;10549;-66
2022/05/05 01:55:34;;;;;;;;;13.00;11.50;;;;;11.68;60.69;101984.31;5067313;28;10654;-65
2022/05/05 01:58:02;;;;;;;;;15.50;11.25;;;;;11.64;60.46;101983.81;5069981;28;10631;-65
2022/05/05 02:00:31;;;;;;;;;12.75;11.75;;;;;11.61;60.43;101981.44;5065601;28;10533;-66
2022/05/05 02:02:58;;;;;;;;;12.50;12.00;;;;;11.56;60.69;101980.31;5067440;28;10622;-65
2022/05/05 02:05:26;;;;;;;;;13.50;10.00;;;;;11.54;60.92;101993.94;5064389;28;10735;-65
2022/05/05 02:07:53;;;;;;;;;17.00;15.50;;;;;11.53;61.22;101996.81;5065547;28;10467;-66
2022/05/05 02:10:20;;;;;;;;;14.25;10.50;;;;;11.51;60.81;101988.06;5070412;28;10615;-66
2022/05/05 02:12:48;;;;;;;;;11.00;10.00;;;;;11.52;61.05;101997.84;5064464;28;10674;-65
2022/05/05 02:15:14;;;;;;;;;11.50;11.50;;;;;11.53;61.18;101999.50;5068121;28;10561;-65
2022/05/05 02:17:42;;;;;;;;;14.75;9.75;;;;;11.51;60.50;101988.91;5062319;28;10510;-65
2022/05/05 02:20:13;;;;;;;;;11.00;11.00;;;;;11.49;60.99;101990.91;5060616;28;11266;-66
2022/05/05 02:22:40;;;;;;;;;13.75;11.25;;;;;11.47;60.66;101997.50;5069309;28;10597;-66
2022/05/05 02:25:08;;;;;;;;;13.25;11.25;;;;;11.46;61.12;101998.50;5062982;28;10531;-64
2022/05/05 02:27:48;;;;;;;;;9.50;7.50;;;;;11.46;61.15;101998.50;5059616;28;11287;-66
2022/05/05 02:30:16;;;;;;;;;10.50;9.75;;;;;11.46;61.22;101998.50;5051724;28;10562;-64
2022/05/05 02:32:42;;;;;;;;;13.75;12.50;;;;;11.48;60.76;101988.41;5069584;28;10462;-67
2022/05/05 02:35:09;;;;;;;;;12.00;9.00;;;;;11.49;61.11;101984.69;5070045;28;10611;-65
2022/05/05 02:40:21;;;;;;;;;9.00;9.00;;;;;11.55;60.45;101982.16;5066071;28;10560;-66
2022/05/05 02:42:48;;;;;;;;;9.50;8.50;;;;;11.60;60.77;101981.63;5069955;28;11290;-65
2022/05/05 02:45:14;;;;;;;;;8.00;8.00;;;;;11.63;60.62;101984.84;5064032;28;10370;-65
2022/05/05 02:47:41;;;;;;;;;13.00;11.50;;;;;11.66;60.45;101982.78;5062810;28;10372;-66
2022/05/05 02:50:08;;;;;;;;;8.75;7.75;;;;;11.67;60.22;101982.63;5069237;28;10462;-66
2022/05/05 02:52:34;;;;;;;;;9.25;7.75;;;;;11.68;60.43;101992.41;5063377;28;10422;-66
2022/05/05 02:55:01;;;;;;;;;13.50;13.00;;;;;11.68;59.90;101991.56;5069266;28;10368;-65
2022/05/05 02:57:28;;;;;;;;;10.00;9.75;;;;;11.69;59.81;101988.69;5071905;28;10689;-65
2022/05/05 02:59:55;;;;;;;;;12.50;11.75;;;;;11.72;59.91;102001.81;5071850;28;10502;-66
2022/05/05 03:02:23;;;;;;;;;12.75;10.75;;;;;11.76;59.71;101999.63;5065474;28;10521;-66
2022/05/05 03:04:50;;;;;;;;;9.75;9.00;;;;;11.77;59.90;101994.03;5069770;28;10693;-66
2022/05/05 03:07:17;;;;;;;;;13.00;11.50;;;;;11.79;60.19;101992.03;5066758;28;11360;-65
2022/05/05 03:09:44;;;;;;;;;8.25;7.25;;;;;11.79;59.82;101994.72;5062348;28;10618;-65
2022/05/05 03:12:11;;;;;;;;;14.00;8.50;;;;;11.79;60.10;101996.59;5064281;28;10492;-65
2022/05/05 03:14:38;;;;;;;;;12.00;9.00;;;;;11.79;60.20;101997.44;5071706;28;10518;-65
2022/05/05 03:17:05;;;;;;;;;11.00;11.00;;;;;11.81;60.23;101997.25;5070541;28;10433;-65
2022/05/05 03:19:31;;;;;;;;;12.00;10.75;;;;;11.81;59.39;101997.25;5069428;28;10559;-66
2022/05/05 03:21:58;;;;;;;;;17.25;12.00;;;;;11.81;59.88;102000.78;5060423;28;10549;-66
2022/05/05 03:24:24;;;;;;;;;15.00;10.00;;;;;11.80;60.33;101998.25;5068804;28;10614;-65
2022/05/05 03:26:51;;;;;;;;;11.00;11.00;;;;;11.78;60.26;101998.41;5070019;28;10520;-66
2022/05/05 03:29:17;;;;;;;;;11.50;10.50;;;;;11.78;59.66;102001.13;5073118;28;10536;-66
2022/05/05 03:31:44;;;;;;;;;9.00;9.00;;;;;11.78;59.68;102001.13;5069150;28;10448;-66
2022/05/05 03:34:10;;;;;;;;;13.50;9.50;;;;;11.78;60.06;102003.81;5067169;28;10508;-66
2022/05/05 03:36:37;;;;;;;;;13.00;9.75;;;;;11.79;59.93;102002.81;5066720;28;10522;-65
2022/05/05 03:39:04;;;;;;;;;11.25;9.25;;;;;11.79;59.72;102013.63;5070209;28;10611;-66
2022/05/05 03:41:31;;;;;;;;;10.50;9.00;;;;;11.81;59.69;102002.63;5064165;28;10580;-66
2022/05/05 03:43:58;;;;;;;;;9.00;7.75;;;;;11.83;59.61;102008.75;5072278;28;10600;-66
2022/05/05 03:46:25;;;;;;;;;9.00;9.00;;;;;11.85;59.53;102007.53;5056682;28;10507;-66
2022/05/05 03:48:52;;;;;;;;;7.75;7.75;;;;;11.85;59.39;102004.84;5067860;28;10571;-66
2022/05/05 03:51:18;;;;;;;;;10.50;8.00;;;;;11.87;58.68;102007.38;5071388;28;10526;-66
2022/05/05 03:53:45;;;;;;;;;8.00;7.25;;;;;11.88;59.11;102007.19;5060202;28;11183;-65
2022/05/05 03:56:11;;;;;;;;;8.50;8.25;;;;;11.88;59.04;102011.75;5066233;28;11292;-66
2022/05/05 03:58:38;;;;;;;;;6.00;5.00;;;;;11.89;58.55;102005.34;5072029;28;10380;-66
2022/05/05 04:01:05;;;;;;;;;8.00;8.00;;;;;11.90;58.57;102014.28;5068590;28;10276;-66
2022/05/05 04:03:31;;;;;;;;;11.00;8.50;;;;;11.90;58.46;102019.66;5067881;28;10366;-66
2022/05/05 04:06:05;;;;;;;;;10.00;9.00;;;;;11.90;58.42;102019.66;5073040;28;11264;-66
2022/05/05 04:08:32;;;;;;;;;10.00;10.00;;;;;11.78;58.57;102016.47;5063730;28;10546;-65
2022/05/05 04:10:59;;;;;;;;;14.00;10.50;;;;;11.77;58.24;102021.03;5069860;28;10464;-66
2022/05/05 04:13:26;;;;;;;;;10.25;7.50;;;;;11.74;58.07;102018.66;5066088;28;10615;-66
2022/05/05 04:15:53;;;;;;;;;12.25;12.25;;;;;11.67;58.38;102024.91;5072146;28;10559;-66
2022/05/05 04:18:20;;;;;;;;;12.25;9.00;;;;;11.64;58.93;102026.13;5070725;28;10675;-65
2022/05/05 04:20:47;;;;;;;;;12.00;12.00;;;;;11.63;58.92;102022.59;5066094;28;10651;-65
2022/05/05 04:23:14;;;;;;;;;13.00;10.75;;;;;11.66;58.87;102020.53;5066667;28;10775;-65
2022/05/05 04:26:01;;;;;;;;;10.75;7.50;;;;;11.68;59.10;102027.47;5068814;28;10580;-65
2022/05/05 04:28:27;;;;;;;;;7.75;7.75;;;;;11.68;58.79;102030.16;5070852;28;10532;-66
2022/05/05 04:30:54;;;;;;;;;8.25;7.25;;;;;11.64;59.34;102023.44;5065155;28;10544;-65
2022/05/05 04:33:21;;;;;;;;;11.75;8.50;;;;;11.63;59.28;102025.28;5063236;28;10382;-65
2022/05/05 04:35:48;;;;;;;;;11.00;9.00;;;;;11.62;58.97;102023.56;5063931;28;10509;-66
2022/05/05 04:38:15;;;;;;;;;11.50;8.50;;;;;11.64;58.92;102023.44;5069584;28;10509;-66
2022/05/05 04:40:42;;;;;;;;;10.75;9.25;;;;;11.65;58.75;102030.50;5062306;28;11270;-65
2022/05/05 04:43:08;;;;;;;;;13.75;11.25;;;;;11.67;58.94;102033.00;5068435;28;10503;-66
2022/05/05 04:45:35;;;;;;;;;10.75;8.50;;;;;11.67;58.86;102035.72;5065889;28;10520;-66
2022/05/05 04:48:02;;;;;;;;;17.75;10.50;;;;;11.66;58.38;102034.03;5064091;28;10435;-65
2022/05/05 04:50:28;;;;;;;;;13.00;9.00;;;;;11.65;58.58;102038.59;5064068;28;10830;-65
2022/05/05 04:52:54;;;;;;;;;11.00;5.50;;;;;11.70;58.97;102036.22;5063628;28;10633;-65
2022/05/05 04:55:21;;;;;;;;;10.00;7.50;;;;;11.73;58.91;102041.25;5067452;28;10535;-65
2022/05/05 04:57:47;;;;;;;;;14.00;12.50;;;;;11.76;58.80;102048.19;5066076;28;10509;-65
2022/05/05 05:00:14;;;;;;;;;9.00;9.00;;;;;11.75;58.21;102047.34;5066978;28;10617;-65
2022/05/05 05:02:40;;;;;;;;;8.25;8.25;;;;;11.76;58.38;102057.13;5066561;28;10471;-65
2022/05/05 05:05:07;;;;;;;;;12.25;7.50;;;;;11.78;58.31;102046.13;5058287;28;10351;-66
2022/05/05 05:07:34;;;;;;;;;10.00;9.00;;;;;11.80;58.32;102046.81;5067094;28;10526;-66
2022/05/05 05:10:00;;;;;;;;;11.50;10.25;;;;;11.79;57.99;102048.69;5071238;28;10616;-66
2022/05/05 05:12:27;;;;;;;;;6.50;6.50;;;;;11.80;58.29;102054.91;5061178;28;10515;-68
2022/05/05 05:14:53;;;;;;;;;10.75;8.75;;;;;11.80;57.79;102063.84;5067197;28;10424;-66
2022/05/05 05:17:20;;;;;;;;;10.50;9.25;;;;;11.76;57.65;102057.13;5067858;28;10487;-65
2022/05/05 05:19:47;;;;;;;;;6.50;6.25;;;;;11.79;57.42;102058.63;5066456;28;11154;-66
2022/05/05 05:22:13;;;;;;;;;11.50;7.00;;;;;11.83;57.68;102060.84;5062968;28;10305;-66
2022/05/05 05:24:40;;;;;;;;;10.75;9.00;;;;;11.86;57.41;102073.97;5069065;28;10307;-66
2022/05/05 05:27:07;;;;;;;;;8.75;8.50;;;;;11.91;57.33;102075.31;5068992;28;10313;-66
2022/05/05 05:29:33;;;;;;;;;6.50;6.00;;;;;11.92;57.25;102077.84;5060762;28;10554;-66
2022/05/05 05:31:59;;;;;;;;;9.75;9.00;;;;;11.95;57.51;102073.94;5055843;28;10574;-65
2022/05/05 05:34:26;;;;;;;;;16.50;11.00;;;;;11.94;57.23;102081.19;5055585;28;10391;-66
2022/05/05 05:36:52;;;;;;;;;12.50;10.50;;;;;11.90;57.25;102077.16;5056390;28;11261;-68
2022/05/05 05:39:19;;;;;;;;;10.50;10.00;;;;;11.91;56.84;102073.47;5070788;28;10529;-66
2022/05/05 05:41:45;;;;;;;;;9.75;8.50;;;;;11.97;57.13;102080.03;5068518;28;10425;-65
2022/05/05 05:44:12;;;;;;;;;14.25;13.00;;;;;11.94;57.28;102083.06;5057592;28;10617;-67
2022/05/05 05:46:38;;;;;;;;;14.50;13.50;;;;;11.95;56.95;102092.84;5063123;28;10686;-65
2022/05/05 05:49:05;;;;;;;;;10.00;9.00;;;;;11.99;56.96;102084.25;5067065;28;10568;-66
2022/05/05 05:51:35;;;;;;;;;13.75;13.00;;;;;12.03;56.47;102092.81;5062652;28;10537;-65
2022/05/05 05:54:02;;;;;;;;;10.25;9.25;;;;;12.05;57.21;102096.19;5064267;28;11094;-65
2022/05/05 05:56:28;;;;;;;;;11.00;11.00;;;;;12.07;57.10;102088.75;5068404;28;10105;-65
2022/05/05 05:58:55;;;;;;;;;15.50;13.50;;;;;12.11;56.55;102092.78;5067327;28;10227;-65
2022/05/05 06:03:53;;;;;;;;;12.50;11.50;;;;;12.12;56.63;102099.88;5068307;28;10461;-66
2022/05/05 06:04:09;;;;;;;;;17.50;12.50;;;;;12.13;57.20;102094.31;5062123;28;10317;-66
2022/05/05 06:06:36;;;;;;;;;11.00;10.75;;;;;12.18;56.75;102090.25;5062747;28;11067;-65
2022/05/05 06:09:02;;;;;;;;;9.25;9.25;;;;;12.23;57.05;102102.19;5070589;28;10440;-63
2022/05/05 06:11:29;;;;;;;;;8.25;7.75;;;;;12.22;57.05;102100.50;5062915;28;10204;-65
2022/05/05 06:13:56;;;;;;;;;12.75;9.00;;;;;12.20;56.35;102104.44;5068307;28;10357;-64
2022/05/05 06:16:22;;;;;;;;;13.50;10.25;;;;;12.22;56.56;102111.31;5064389;28;10221;-65
2022/05/05 06:18:49;;;;;;;;;7.75;7.50;;;;;12.26;56.32;102117.22;5050523;28;10239;-65
2022/05/05 06:21:15;;;;;;;;;10.50;7.00;;;;;12.31;56.54;102120.22;5068085;28;10331;-64
2022/05/05 06:23:46;;;;;;;;;11.75;8.25;;;;;12.35;56.95;102116.16;5068375;28;10226;-65
2022/05/05 06:26:13;;;;;;;;;12.25;10.00;;;;;12.39;56.71;102117.50;5069566;28;10372;-64
2022/05/05 06:28:39;;;;;;;;;13.75;11.00;;;;;12.42;56.37;102122.53;5069615;28;10298;-65
2022/05/05 06:31:06;;;;;;;;;7.75;7.50;;;;;12.47;56.53;102122.03;5061462;28;11157;-64
2022/05/05 06:33:32;;;;;;;;;7.00;5.25;;;;;12.49;56.49;102122.69;5066577;28;10097;-64
2022/05/05 06:35:59;;;;;;;;;9.00;9.00;;;;;12.52;56.70;102123.19;5066957;28;10139;-65
2022/05/05 06:38:25;;;;;;;;;11.25;8.25;;;;;12.53;56.29;102129.44;5061217;28;10413;-65
2022/05/05 06:40:52;;;;;;;;;15.00;10.25;;;;;12.55;56.42;102132.78;5056096;28;10311;-66
2022/05/05 06:43:18;;;;;;;;;12.75;8.50;;;;;12.57;56.37;102130.75;5061164;28;10169;-66
2022/05/05 06:45:46;;;;;;;;;13.00;11.00;;;;;12.60;56.67;102141.22;5058191;28;10052;-66
2022/05/05 06:48:13;;;;;;;;;10.50;8.00;;;;;12.63;57.03;102135.44;5060430;28;10235;-68
2022/05/05 06:50:40;;;;;;;;;13.50;9.00;;;;;12.70;57.03;102135.59;5060495;28;10241;-65
2022/05/05 06:53:06;;;;;;;;;12.75;10.75;;;;;12.74;56.67;102136.94;5065003;28;10188;-66
2022/05/05 06:55:33;;;;;;;;;13.50;12.00;;;;;12.74;56.55;102139.63;5063043;28;10080;-66
2022/05/05 06:58:00;;;;;;;;;12.75;12.25;;;;;12.75;56.73;102134.03;5057980;28;10167;-66
2022/05/05 07:01:51;;;;;;;;;7.00;7.00;;;;;12.79;56.44;102138.06;5063450;28;10425;-65
2022/05/05 07:03:15;;;;;;;;;7.75;7.75;;;;;12.84;56.57;102142.94;5055255;28;10741;-67
2022/05/05 07:05:42;;;;;;;;;15.00;11.50;;;;;12.85;56.47;102145.47;5057962;28;9988;-66
2022/05/05 07:08:08;;;;;;;;;13.50;10.75;;;;;12.88;56.14;102149.66;5057456;28;10217;-68
2022/05/05 07:10:53;;;;;;;;;11.50;8.50;;;;;12.94;56.60;102154.38;5056702;28;10186;-65
2022/05/05 07:13:24;;;;;;;;;15.25;14.25;;;;;12.95;56.46;102152.50;5061618;28;10693;-65
2022/05/05 07:15:51;;;;;;;;;14.25;13.25;;;;;12.99;56.45;102154.69;5060287;28;10168;-66
2022/05/05 07:18:18;;;;;;;;;12.50;11.00;;;;;13.05;56.59;102166.66;5060714;28;10194;-65
2022/05/05 07:20:45;;;;;;;;;13.25;9.75;;;;;13.09;56.48;102162.59;5060301;28;10090;-65
2022/05/05 07:23:12;;;;;;;;;16.50;13.75;;;;;13.11;56.18;102158.66;5065322;28;10135;-66
2022/05/05 07:25:41;;;;;;;;;14.00;9.75;;;;;13.11;55.78;102161.38;5059758;28;10059;-65
2022/05/05 07:28:08;;;;;;;;;11.00;10.25;;;;;13.15;56.28;102155.59;5065015;28;10265;-65
2022/05/05 07:30:35;;;;;;;;;13.50;11.75;;;;;13.18;55.99;102158.78;5061499;28;10085;-66
2022/05/05 07:33:03;;;;;;;;;13.00;13.00;;;;;13.24;56.21;102154.56;5065080;28;10833;-65
2022/05/05 07:35:30;;;;;;;;;9.25;9.25;;;;;13.29;55.76;102166.53;5060791;28;10084;-65
2022/05/05 07:37:57;;;;;;;;;11.75;9.75;;;;;13.35;56.18;102159.56;5062114;28;10200;-65
2022/05/05 07:40:23;;;;;;;;;11.00;8.75;;;;;13.43;55.59;102164.06;5068709;28;9994;-65
2022/05/05 07:42:50;;;;;;;;;16.50;11.50;;;;;13.51;55.80;102158.59;5067628;28;9936;-65
2022/05/05 07:45:16;;;;;;;;;14.50;10.50;;;;;13.55;55.22;102160.75;5069053;28;9762;-66
2022/05/05 07:47:43;;;;;;;;;11.75;9.00;;;;;13.61;54.96;102167.28;5063862;28;10057;-65
2022/05/05 07:50:10;;;;;;;;;13.00;12.50;;;;;13.63;55.06;102159.00;5055209;28;9844;-66
2022/05/05 07:52:36;;;;;;;;;11.75;10.75;;;;;13.67;55.10;102171.16;5055576;28;10814;-66
2022/05/05 07:55:04;;;;;;;;;11.25;10.00;;;;;13.73;55.25;102167.69;5056033;28;10700;-65
2022/05/05 07:57:31;;;;;;;;;12.25;11.00;;;;;13.84;55.82;102167.25;5056290;28;9957;-65
2022/05/05 07:59:57;;;;;;;;;10.25;9.25;;;;;13.96;55.26;102167.66;5060694;28;9910;-66
2022/05/05 08:02:24;;;;;;;;;12.50;12.50;;;;;14.04;55.26;102167.56;5056913;28;9968;-64
2022/05/05 08:04:50;;;;;;;;;20.25;17.50;;;;;14.06;55.04;102166.38;5058443;28;9930;-67
2022/05/05 08:07:18;;;;;;;;;18.25;17.75;;;;;14.10;55.55;102169.56;5060470;28;10017;-64
2022/05/05 08:09:44;;;;;;;;;14.75;13.00;;;;;14.16;55.36;102166.09;5057062;28;9939;-65
2022/05/05 08:12:31;;;;;;;;;16.25;15.25;;;;;14.22;55.19;102178.03;5058143;28;10104;-64
2022/05/05 08:14:59;;;;;;;;;17.25;16.00;;;;;14.28;55.19;102180.88;5058865;28;10025;-64
2022/05/05 08:17:25;;;;;;;;;26.25;20.00;;;;;14.31;55.10;102179.66;5059003;28;10659;-66
2022/05/05 08:19:52;;;;;;;;;24.25;23.25;;;;;14.36;55.62;102182.66;5058785;28;9993;-64
2022/05/05 08:22:20;;;;;;;;;25.75;20.75;;;;;14.40;55.71;102178.53;5055137;28;10062;-65
2022/05/05 08:30:27;;;;;;;;;29.25;20.50;;;;;14.46;55.83;102187.75;5061100;28;9987;-66
2022/05/05 08:32:54;;;;;;;;;29.00;24.50;;;;;14.51;56.47;102196.22;5056786;28;10356;-65
2022/05/05 08:35:22;;;;;;;;;30.75;26.75;;;;;14.52;56.68;102204.16;5055766;28;10390;-66
2022/05/05 08:37:50;;;;;;;;;32.50;27.00;;;;;14.56;56.96;102196.50;5052611;28;10483;-65
2022/05/05 08:40:18;;;;;;;;;26.50;24.00;;;;;14.59;56.97;102198.84;5057938;28;10298;-65
2022/05/05 08:42:45;;;;;;;;;28.50;25.00;;;;;14.67;56.67;102195.19;5057712;28;10274;-65
2022/05/05 08:45:11;;;;;;;;;29.75;26.25;;;;;14.72;56.75;102204.44;5056828;28;10262;-65
2022/05/05 08:47:40;;;;;;;;;35.50;32.00;;;;;14.71;56.99;102200.06;5058954;28;10207;-66
2022/05/05 08:50:09;;;;;;;;;26.25;19.75;;;;;14.77;56.94;102202.00;5054724;28;10272;-66
2022/05/05 08:52:43;;;;;;;;;16.25;14.00;;;;;14.89;57.38;102205.06;5056906;28;10273;-63
2022/05/05 08:55:22;;;;;;;;;22.75;18.75;;;;;15.10;56.60;102209.69;5054400;28;9788;-66
2022/05/05 08:57:49;;;;;;;;;30.25;27.75;;;;;15.18;56.37;102212.28;5060968;28;9927;-65
2022/05/05 09:00:16;;;;;;;;;30.25;26.00;;;;;15.22;56.42;102215.47;5057118;28;10235;-64
2022/05/05 09:02:43;;;;;;;;;31.50;27.25;;;;;15.17;56.45;102216.03;5060327;28;10066;-65
2022/05/05 09:05:10;;;;;;;;;29.00;27.25;;;;;15.16;56.71;102213.53;5058812;28;10375;-66
2022/05/05 09:07:52;;;;;;;;;34.00;26.50;;;;;15.17;56.79;102216.03;5061476;28;10186;-64
2022/05/05 09:10:20;;;;;;;;;27.50;24.25;;;;;15.23;56.66;102223.44;5058573;28;10161;-65
2022/05/05 09:13:00;;;;;;;;;34.00;34.00;;;;;15.30;56.83;102218.91;5058454;28;9918;-65
2022/05/05 09:15:31;;;;;;;;;38.25;33.25;;;;;15.40;56.93;102218.59;5053212;28;10206;-66
2022/05/05 09:18:14;;;;;;;;;38.00;35.00;;;;;15.51;57.18;102226.22;5057079;28;10305;-67
2022/05/05 09:20:42;;;;;;;;;26.00;25.50;;;;;15.57;57.24;102235.47;5057015;28;10909;-67
2022/05/05 09:23:28;;;;;;;;;37.75;33.25;;;;;15.68;57.20;102228.72;5055409;28;9860;-66
2022/05/05 09:25:55;;;;;;;;;30.25;30.00;;;;;15.71;56.81;102236.47;5057322;28;10363;-67
2022/05/05 09:28:24;;;;;;;;;32.25;30.25;;;;;15.70;57.33;102227.47;5054573;28;10106;-66
2022/05/05 09:30:52;;;;;;;;;41.25;36.75;;;;;15.68;57.67;102237.72;5057721;28;10376;-65
2022/05/05 09:33:33;;;;;;;;;40.75;33.75;;;;;15.71;57.37;102234.59;5056469;28;10483;-68
2022/05/05 09:36:09;;;;;;;;;45.50;38.75;;;;;15.70;57.76;102238.34;5056735;28;10877;-66
2022/05/05 09:38:56;;;;;;;;;41.75;37.00;;;;;15.71;57.67;102241.91;5054347;28;10617;-65
2022/05/05 09:41:24;;;;;;;;;47.00;39.25;;;;;15.73;57.62;102245.28;5054591;28;10903;-66
2022/05/05 09:43:56;;;;;;;;;40.75;37.50;;;;;15.76;57.60;102240.28;5058565;28;10431;-66
2022/05/05 09:46:22;;;;;;;;;39.75;37.00;;;;;15.82;57.64;102244.94;5052778;28;10277;-66
2022/05/05 09:48:49;;;;;;;;;36.75;34.50;;;;;15.84;56.95;102250.19;5055435;28;10113;-66
2022/05/05 09:51:16;;;;;;;;;42.00;33.75;;;;;15.85;57.07;102249.16;5053547;28;10312;-69
2022/05/05 09:59:29;;;;;;;;;32.00;29.00;;;;;15.94;57.45;102255.28;5051950;28;10105;-67
2022/05/05 10:02:12;;;;;;;;;35.25;32.25;;;;;15.98;57.16;102257.41;5065658;28;9935;-67
2022/05/05 10:04:40;;;;;;;;;42.75;35.75;;;;;15.97;56.40;102252.19;5062099;28;10189;-67
2022/05/05 10:07:08;;;;;;;;;35.50;32.00;;;;;15.97;56.57;102254.91;5067428;28;10437;-67
2022/05/05 10:09:36;;;;;;;;;48.75;33.50;;;;;16.01;56.23;102257.03;5067618;28;10019;-67
2022/05/05 10:12:03;;;;;;;;;25.00;24.75;;;;;16.05;56.47;102255.59;5066512;28;9956;-66
2022/05/05 10:14:30;;;;;;;;;34.50;34.50;;;;;16.10;56.30;102252.28;5057099;28;10043;-65
2022/05/05 10:16:57;;;;;;;;;39.00;35.25;;;;;16.17;56.08;102255.91;5054171;28;10458;-68
2022/05/05 10:19:23;;;;;;;;;46.50;37.25;;;;;16.22;56.10;102256.13;5055464;28;10080;-68
2022/05/05 10:21:59;;;;;;;;;46.00;40.25;;;;;16.23;56.28;102256.97;5055104;28;10252;-64
2022/05/05 10:24:38;;;;;;;;;40.00;34.25;;;;;16.31;55.75;102244.06;5057513;28;10782;-64
2022/05/05 10:27:05;;;;;;;;;37.50;30.00;;;;;16.41;55.96;102253.78;5055987;28;10402;-66
2022/05/05 10:29:31;;;;;;;;;38.25;36.00;;;;;16.49;55.23;102249.03;5054750;28;10194;-66
2022/05/05 10:32:22;;;;;;;;;41.00;37.00;;;;;16.60;54.93;102247.63;5055934;28;10220;-66
2022/05/05 10:35:07;;;;;;;;;43.50;40.50;;;;;16.66;54.35;102244.09;5048279;28;10504;-67
2022/05/05 10:37:37;;;;;;;;;40.25;37.25;;;;;16.72;54.35;102246.00;5057802;28;10549;-66
2022/05/05 10:40:08;;;;;;;;;52.25;42.75;;;;;16.80;54.26;102243.16;5055654;28;10413;-67
2022/05/05 10:42:39;;;;;;;;;38.00;35.00;;;;;16.85;53.67;102244.44;5054835;28;10675;-65
2022/05/05 10:45:07;;;;;;;;;52.75;41.50;;;;;16.94;53.71;102245.97;5054761;28;10227;-66
2022/05/05 10:47:52;;;;;;;;;44.25;38.00;;;;;16.91;53.56;102251.81;5056528;28;10644;-67
2022/05/05 10:50:42;;;;;;;;;41.00;36.75;;;;;16.90;54.01;102250.97;5053216;28;10664;-67
2022/05/05 10:53:36;;;;;;;;;37.25;26.25;;;;;16.96;53.51;102255.59;5055482;28;10400;-66
2022/05/05 10:56:20;;;;;;;;;31.75;28.50;;;;;17.06;53.26;102255.22;5055838;28;10056;-66
2022/05/05 10:59:01;;;;;;;;;40.25;34.00;;;;;17.20;52.18;102253.38;5052200;28;9923;-67
2022/05/05 11:01:30;;;;;;;;;38.25;32.75;;;;;17.18;51.98;102258.22;5049592;28;11098;-66
2022/05/05 11:04:17;;;;;;;;;34.50;30.75;;;;;17.18;52.21;102260.94;5053410;28;10287;-65
2022/05/05 11:06:48;;;;;;;;;40.25;34.50;;;;;17.18;52.41;102263.66;5055994;28;10025;-65
2022/05/05 11:09:33;;;;;;;;;33.50;31.00;;;;;17.22;52.22;102259.47;5055135;28;9963;-66
2022/05/05 11:12:22;;;;;;;;;38.00;35.75;;;;;17.24;52.27;102260.94;5058117;28;9855;-65
2022/05/05 11:23:48;;;;;;;;;46.50;39.00;;;;;17.23;52.42;102261.16;5059926;28;10830;-66
2022/05/05 11:26:19;;;;;;;;;41.50;38.00;;;;;17.26;52.77;102261.59;5059445;28;10354;-67
2022/05/05 11:28:50;;;;;;;;;34.50;33.75;;;;;17.36;52.71;102261.19;5061295;28;10246;-67
2022/05/05 11:31:17;;;;;;;;;33.25;31.00;;;;;17.53;52.30;102264.38;5057399;28;10021;-66
2022/05/05 11:34:06;;;;;;;;;37.25;34.25;;;;;17.67;52.28;102255.19;5060686;28;10004;-66
2022/05/05 11:36:34;;;;;;;;;37.00;33.50;;;;;17.78;51.71;102264.66;5057947;28;10033;-62
2022/05/05 11:39:03;;;;;;;;;44.75;39.25;;;;;17.77;51.21;102271.16;5061028;28;10011;-65
2022/05/05 11:41:30;;;;;;;;;40.25;37.50;;;;;17.71;51.62;102259.19;5055507;28;10279;-66
2022/05/05 11:46:41;;;;;;;;;38.50;35.50;;;;;17.70;51.38;102270.25;5060470;28;10113;-66
2022/05/05 11:49:09;;;;;;;;;38.25;32.75;;;;;17.83;51.14;102273.06;5058930;28;10615;-67
2022/05/05 11:51:36;;;;;;;;;29.75;26.50;;;;;17.90;50.28;102273.06;5060891;28;10516;-68
2022/05/05 11:54:11;;;;;;;;;43.75;36.25;;;;;17.96;49.88;102266.78;5060669;28;9624;-64